Time;durP1;ratioP1;P1;durP2;ratioP2;P2;SDS_P1;SDS_P2;PMS_P1;PMS_P2;Temp;Humidity;BMP_temperature;BMP_pressure;BME280_temperature;BME280_humidity;BME280_pressure;Samples;Min_cycle;Max_cycle;Signal;HPM_P1;HPM_P2
2023/03/08 00:01:15;;;;;;;11.67;5.23;;;0.70;99.90;;;;;;12343888;28;20047;-82
2023/03/08 00:07:17;;;;;;;10.73;5.95;;;0.70;99.90;;;;;;12342907;28;20476;-82
2023/03/08 00:13:19;;;;;;;9.57;5.85;;;0.70;99.90;;;;;;12342697;28;20072;-81
2023/03/08 00:19:21;;;;;;;9.90;5.60;;;0.70;99.90;;;;;;12342674;28;20113;-82
2023/03/08 00:25:23;;;;;;;11.63;5.22;;;0.70;99.90;;;;;;12393829;28;20077;-81
2023/03/08 00:31:25;;;;;;;13.32;5.85;;;0.70;99.90;;;;;;12369674;28;20047;-81
2023/03/08 00:37:27;;;;;;;10.00;5.85;;;0.70;99.90;;;;;;12365460;28;20051;-81
2023/03/08 00:43:29;;;;;;;11.20;6.30;;;0.80;99.90;;;;;;12368625;28;20061;-82
2023/03/08 00:49:31;;;;;;;11.07;6.40;;;0.60;99.90;;;;;;12365213;28;20066;-81
2023/03/08 00:55:33;;;;;;;10.80;7.22;;;0.60;99.90;;;;;;12384327;28;20414;-81
2023/03/08 01:01:35;;;;;;;12.15;7.05;;;0.60;99.90;;;;;;12367882;28;20619;-82
2023/03/08 01:07:37;;;;;;;10.43;6.43;;;0.60;99.90;;;;;;12363674;28;20106;-81
2023/03/08 01:13:39;;;;;;;10.93;6.43;;;0.60;99.90;;;;;;12385467;28;20045;-81
2023/03/08 01:19:41;;;;;;;11.75;6.65;;;0.40;99.90;;;;;;12351823;28;20051;-81
2023/03/08 01:25:43;;;;;;;13.13;6.97;;;0.50;99.90;;;;;;12347497;28;20054;-80
2023/03/08 01:31:45;;;;;;;11.13;7.00;;;0.60;99.90;;;;;;12339255;28;20650;-81
2023/03/08 01:37:52;;;;;;;11.60;6.38;;;0.50;99.90;;;;;;12331725;28;20042;-81
2023/03/08 01:43:54;;;;;;;8.88;5.30;;;0.40;99.90;;;;;;12367151;28;20057;-81
2023/03/08 01:50:04;;;;;;;8.65;4.85;;;0.40;99.90;;;;;;12331141;28;20516;-80
2023/03/08 01:56:10;;;;;;;9.35;5.50;;;0.30;99.90;;;;;;12353555;28;20038;-82
2023/03/08 02:02:12;;;;;;;11.75;5.82;;;0.30;99.90;;;;;;12345390;28;20583;-82
2023/03/08 02:08:14;;;;;;;10.30;5.45;;;0.10;99.90;;;;;;12329905;28;20419;-81
2023/03/08 02:14:15;;;;;;;10.38;5.47;;;0.10;99.90;;;;;;12338131;28;20050;-81
2023/03/08 02:20:29;;;;;;;8.50;4.47;;;0.20;99.90;;;;;;12370867;28;20414;-81
2023/03/08 02:26:32;;;;;;;7.20;4.40;;;0.10;99.90;;;;;;12385866;28;20054;-81
2023/03/08 02:32:34;;;;;;;8.45;4.80;;;-0.10;99.90;;;;;;12356764;28;20054;-81
2023/03/08 02:38:36;;;;;;;8.73;4.43;;;-0.30;99.90;;;;;;12383387;28;20054;-81
2023/03/08 02:44:38;;;;;;;7.70;4.63;;;-0.40;99.90;;;;;;12353925;28;20038;-81
2023/03/08 02:50:40;;;;;;;10.30;4.85;;;-0.40;99.90;;;;;;12361863;28;20526;-81
2023/03/08 02:56:42;;;;;;;8.50;4.40;;;-0.40;99.90;;;;;;12377584;28;20042;-81
2023/03/08 03:02:44;;;;;;;12.65;5.68;;;-0.40;99.90;;;;;;12376151;28;20047;-81
2023/03/08 03:08:47;;;;;;;12.30;5.93;;;-0.20;99.90;;;;;;12361720;28;20380;-80
2023/03/08 03:14:49;;;;;;;12.52;6.43;;;-0.10;99.90;;;;;;12358436;28;20524;-81
2023/03/08 03:20:51;;;;;;;10.20;6.10;;;0.00;99.90;;;;;;12351283;28;20061;-81
2023/03/08 03:26:53;;;;;;;10.63;6.78;;;0.00;99.90;;;;;;12342975;28;20118;-82
2023/03/08 03:32:55;;;;;;;13.27;6.50;;;0.00;99.90;;;;;;12350982;28;20042;-81
2023/03/08 03:38:57;;;;;;;10.88;6.30;;;0.10;99.90;;;;;;12364300;28;20054;-81
2023/03/08 03:44:59;;;;;;;11.00;6.68;;;0.00;99.90;;;;;;12350046;28;20050;-81
2023/03/08 03:51:05;;;;;;;14.85;6.88;;;0.10;99.90;;;;;;12342477;28;20416;-81
2023/03/08 03:57:07;;;;;;;10.98;6.72;;;0.10;99.90;;;;;;12330082;28;20038;-81
2023/03/08 04:03:09;;;;;;;12.15;6.85;;;0.10;99.90;;;;;;12358054;28;20184;-82
2023/03/08 04:09:16;;;;;;;13.25;7.18;;;0.10;99.90;;;;;;12340281;28;20093;-81
2023/03/08 04:15:18;;;;;;;13.90;7.82;;;0.10;99.90;;;;;;12347066;28;20065;-81
2023/03/08 04:21:23;;;;;;;14.10;8.45;;;0.10;99.90;;;;;;12348699;28;20723;-80
2023/03/08 04:27:25;;;;;;;14.25;8.25;;;0.10;99.90;;;;;;12371726;28;20192;-81
2023/03/08 04:33:28;;;;;;;13.75;7.97;;;0.10;99.90;;;;;;12367221;28;20487;-82
2023/03/08 04:39:30;;;;;;;15.55;8.55;;;0.10;99.90;;;;;;12361308;28;20134;-81
2023/03/08 04:45:32;;;;;;;12.68;7.63;;;0.10;99.90;;;;;;12353396;28;20521;-81
2023/03/08 04:51:34;;;;;;;15.80;8.80;;;0.10;99.90;;;;;;12347983;28;20113;-81
2023/03/08 04:57:36;;;;;;;18.05;9.45;;;0.00;99.90;;;;;;12353950;28;20062;-81
2023/03/08 05:03:38;;;;;;;16.77;9.35;;;0.00;99.90;;;;;;12376729;28;20066;-81
2023/03/08 05:09:39;;;;;;;16.60;9.07;;;0.10;99.90;;;;;;12355284;28;20522;-82
2023/03/08 05:15:43;;;;;;;18.80;10.10;;;0.10;99.90;;;;;;12352517;28;20038;-82
2023/03/08 05:21:45;;;;;;;19.63;10.27;;;0.00;99.90;;;;;;12336532;28;20108;-82
2023/03/08 05:27:47;;;;;;;20.58;11.32;;;-0.10;99.90;;;;;;12324277;28;20050;-82
2023/03/08 05:33:50;;;;;;;25.48;11.13;;;-0.20;99.90;;;;;;12373666;28;20046;-82
2023/03/08 05:39:52;;;;;;;23.80;12.60;;;-0.20;99.90;;;;;;12336242;28;20050;-82
2023/03/08 05:46:16;;;;;;;26.55;13.18;;;-0.40;99.90;;;;;;12369967;28;20078;-82
2023/03/08 05:52:18;;;;;;;30.77;13.93;;;-0.40;99.90;;;;;;12354687;28;20046;-82
2023/03/08 05:58:20;;;;;;;29.63;15.10;;;-0.40;99.90;;;;;;12355370;28;20100;-82
2023/03/08 06:04:22;;;;;;;30.85;15.60;;;-0.40;99.90;;;;;;12345374;28;20101;-82
2023/03/08 06:10:24;;;;;;;38.13;15.07;;;-0.40;99.90;;;;;;12334380;28;20070;-82
2023/03/08 06:16:26;;;;;;;36.70;16.45;;;-0.40;99.90;;;;;;12335980;28;20047;-81
2023/03/08 06:22:28;;;;;;;32.35;15.90;;;-0.40;99.90;;;;;;12378867;28;20047;-82
2023/03/08 06:28:31;;;;;;;30.42;16.45;;;-0.40;99.90;;;;;;12371225;28;20069;-82
2023/03/08 06:34:33;;;;;;;34.47;17.42;;;-0.30;99.90;;;;;;12371222;28;20046;-83
2023/03/08 06:40:35;;;;;;;37.50;17.38;;;-0.30;99.90;;;;;;12364192;28;20047;-82
2023/03/08 06:46:37;;;;;;;33.42;16.30;;;-0.20;99.90;;;;;;12335368;28;20108;-82
2023/03/08 06:52:39;;;;;;;33.63;17.13;;;-0.20;99.90;;;;;;12364714;28;20043;-82
2023/03/08 06:58:41;;;;;;;38.55;17.67;;;0.00;99.90;;;;;;12377573;28;20054;-82
2023/03/08 07:04:43;;;;;;;31.58;17.02;;;0.20;99.90;;;;;;12379700;28;20145;-82
2023/03/08 07:10:45;;;;;;;31.17;15.63;;;0.20;99.90;;;;;;12364591;28;20174;-82
2023/03/08 07:16:47;;;;;;;24.63;13.60;;;0.40;99.90;;;;;;12348736;28;20061;-80
2023/03/08 07:22:49;;;;;;;31.77;17.55;;;0.80;99.90;;;;;;12363887;28;20058;-82
2023/03/08 07:28:51;;;;;;;28.70;15.45;;;0.70;99.90;;;;;;12373594;28;20077;-82
2023/03/08 07:34:54;;;;;;;33.22;18.52;;;1.00;99.90;;;;;;12362724;28;20063;-83
2023/03/08 07:40:57;;;;;;;34.45;19.25;;;1.20;99.90;;;;;;12374838;28;20050;-83
2023/03/08 07:46:58;;;;;;;32.90;18.20;;;0.70;99.90;;;;;;12362520;28;20046;-83
2023/03/08 07:53:01;;;;;;;34.63;17.58;;;0.80;99.90;;;;;;12378089;28;20043;-82
2023/03/08 07:59:03;;;;;;;33.97;18.13;;;0.70;99.90;;;;;;12350929;28;20618;-81
2023/03/08 08:05:05;;;;;;;30.52;16.80;;;0.80;99.90;;;;;;12384184;28;20133;-82
2023/03/08 08:11:14;;;;;;;35.15;18.05;;;1.20;99.90;;;;;;12356954;28;20523;-82
2023/03/08 08:17:18;;;;;;;34.60;18.05;;;1.50;99.90;;;;;;12335257;28;20046;-82
2023/03/08 08:23:20;;;;;;;25.05;13.40;;;2.00;99.90;;;;;;12351978;28;20057;-82
2023/03/08 08:29:22;;;;;;;29.70;17.33;;;2.30;99.90;;;;;;12379895;28;20168;-82
2023/03/08 08:35:24;;;;;;;32.03;16.75;;;1.90;99.90;;;;;;12397378;28;20042;-83
2023/03/08 08:41:42;;;;;;;33.78;17.27;;;2.20;99.90;;;;;;12374287;28;20092;-83
2023/03/08 08:47:44;;;;;;;29.25;16.67;;;1.90;99.90;;;;;;12362741;28;20100;-83
2023/03/08 08:53:46;;;;;;;32.97;17.38;;;1.70;99.90;;;;;;12325366;28;20088;-82
2023/03/08 08:59:48;;;;;;;29.65;16.52;;;1.70;99.90;;;;;;12324821;28;20097;-82
2023/03/08 09:05:50;;;;;;;31.52;16.65;;;1.80;99.90;;;;;;12338247;28;20086;-82
2023/03/08 09:11:54;;;;;;;26.65;15.70;;;1.70;99.90;;;;;;12297824;28;20058;-83
2023/03/08 09:17:56;;;;;;;31.00;17.35;;;1.90;99.90;;;;;;12316412;28;20093;-82
2023/03/08 09:24:02;;;;;;;30.70;17.30;;;1.80;99.90;;;;;;12307667;28;20559;-82
2023/03/08 09:30:05;;;;;;;32.80;17.23;;;1.70;99.90;;;;;;12308085;28;20105;-82
2023/03/08 09:36:08;;;;;;;29.37;16.20;;;1.80;99.90;;;;;;12254251;28;20051;-82
2023/03/08 09:42:37;;;;;;;30.63;17.23;;;1.90;99.90;;;;;;12317772;28;20050;-82
2023/03/08 09:48:45;;;;;;;32.60;17.05;;;2.20;99.90;;;;;;12329215;28;20082;-82
2023/03/08 09:54:48;;;;;;;28.55;16.50;;;2.20;99.90;;;;;;12324230;28;20100;-82
2023/03/08 10:00:50;;;;;;;26.63;14.68;;;2.60;99.90;;;;;;12333536;28;20144;-83
2023/03/08 10:07:07;;;;;;;26.00;15.35;;;2.40;99.90;;;;;;12353401;28;20055;-82
2023/03/08 10:13:12;;;;;;;22.88;12.15;;;2.60;99.90;;;;;;12335426;28;20751;-83
2023/03/08 10:19:29;;;;;;;;;;;2.90;99.90;;;;;;12353120;28;20129;-83
2023/03/08 10:25:33;;;;;;;15.25;8.52;;;2.90;99.90;;;;;;12302570;28;19930;-82
2023/03/08 10:31:35;;;;;;;14.27;8.27;;;2.40;99.90;;;;;;12322214;28;20070;-82
2023/03/08 10:37:37;;;;;;;11.40;6.22;;;2.20;99.90;;;;;;12316593;28;20051;-83
2023/03/08 10:43:51;;;;;;;8.82;4.90;;;2.00;99.90;;;;;;12337760;28;20043;-83
2023/03/08 10:50:16;;;;;;;6.85;3.78;;;2.10;99.90;;;;;;12347738;28;20510;-83
2023/03/08 10:56:30;;;;;;;6.68;3.80;;;2.20;99.90;;;;;;12355999;28;20042;-83
2023/03/08 11:02:32;;;;;;;5.30;2.90;;;2.20;99.90;;;;;;12359299;28;20074;-82
2023/03/08 11:08:37;;;;;;;6.50;3.60;;;2.20;99.90;;;;;;12363053;28;20054;-82
2023/03/08 11:14:40;;;;;;;5.78;4.13;;;2.10;99.90;;;;;;12355515;28;20972;-82
2023/03/08 11:20:57;;;;;;;8.25;4.68;;;2.20;99.90;;;;;;12343102;28;20047;-82
2023/03/08 11:27:08;;;;;;;6.40;3.65;;;2.20;99.90;;;;;;12352557;28;20054;-83
2023/03/08 11:33:35;;;;;;;6.82;3.92;;;2.50;99.90;;;;;;12346266;28;20398;-82
2023/03/08 11:39:48;;;;;;;5.68;3.00;;;2.70;99.90;;;;;;12349802;28;20134;-82
2023/03/08 11:46:14;;;;;;;6.20;3.05;;;2.50;99.90;;;;;;12362639;28;20139;-81
2023/03/08 11:52:35;;;;;;;5.18;3.05;;;2.40;99.90;;;;;;12357129;28;20061;-82
2023/03/08 11:58:55;;;;;;;6.43;3.08;;;2.40;99.90;;;;;;12350182;28;20074;-81
2023/03/08 12:05:12;;;;;;;5.88;2.65;;;2.30;99.90;;;;;;12345100;28;20085;-81
2023/03/08 12:11:28;;;;;;;6.72;2.40;;;2.50;99.90;;;;;;12352704;28;20046;-81
2023/03/08 12:17:44;;;;;;;5.20;2.40;;;2.50;99.90;;;;;;12349903;28;20042;-81
2023/03/08 12:24:18;;;;;;;8.77;3.58;;;2.40;99.90;;;;;;12356784;28;20047;-81
2023/03/08 12:30:50;;;;;;;6.37;3.27;;;2.50;99.90;;;;;;12401552;28;20054;-80
2023/03/08 12:36:53;;;;;;;5.47;3.03;;;2.20;99.90;;;;;;12363071;28;20074;-81
2023/03/08 12:43:29;;;;;;;6.03;2.90;;;2.00;99.90;;;;;;12364690;28;20069;-81
2023/03/08 12:49:35;;;;;;;6.00;2.63;;;2.20;99.90;;;;;;12373210;28;20149;-81
2023/03/08 12:55:36;;;;;;;5.95;2.88;;;2.10;99.90;;;;;;12377253;28;20042;-81
2023/03/08 13:01:44;;;;;;;5.75;2.83;;;2.20;99.90;;;;;;12384757;28;20117;-80
2023/03/08 13:08:06;;;;;;;4.45;2.60;;;2.20;99.90;;;;;;12371542;28;20483;-80
2023/03/08 13:14:39;;;;;;;5.03;2.95;;;2.10;99.90;;;;;;12358433;28;20128;-80
2023/03/08 13:20:59;;;;;;;5.00;2.42;;;1.90;99.90;;;;;;12343920;28;20051;-80
2023/03/08 13:27:27;;;;;;;4.88;2.58;;;1.80;99.90;;;;;;12342369;28;20046;-80
2023/03/08 13:33:35;;;;;;;5.70;2.90;;;1.90;99.90;;;;;;12332405;28;20050;-80
2023/03/08 13:39:37;;;;;;;5.25;2.60;;;2.00;99.90;;;;;;12315376;28;20403;-80
2023/03/08 13:45:40;;;;;;;6.00;2.17;;;1.90;99.90;;;;;;12347641;28;20074;-79
2023/03/08 13:51:45;;;;;;;4.57;2.30;;;1.90;99.90;;;;;;12358522;28;20060;-79
2023/03/08 13:57:51;;;;;;;3.38;1.63;;;1.80;99.90;;;;;;12345113;28;20054;-80
2023/03/08 14:03:54;;;;;;;3.67;2.00;;;1.80;99.90;;;;;;12320043;28;20085;-79
2023/03/08 14:09:57;;;;;;;3.00;1.60;;;1.80;99.90;;;;;;12324614;28;20415;-79
2023/03/08 14:16:02;;;;;;;3.63;1.90;;;1.80;99.90;;;;;;12382849;28;20046;-79
2023/03/08 14:22:16;;;;;;;3.75;1.95;;;1.70;99.90;;;;;;12361299;28;20091;-80
2023/03/08 14:28:40;;;;;;;4.78;2.22;;;1.80;99.90;;;;;;12387536;28;20062;-79
2023/03/08 14:34:45;;;;;;;4.25;2.55;;;1.80;99.90;;;;;;12361816;28;20650;-80
2023/03/08 14:40:49;;;;;;;6.72;2.72;;;1.70;99.90;;;;;;12361851;28;20054;-80
2023/03/08 14:46:57;;;;;;;6.05;3.15;;;1.80;99.90;;;;;;12361256;28;20082;-79
2023/03/08 14:53:01;;;;;;;5.38;3.15;;;1.90;99.90;;;;;;12360458;28;20042;-79
2023/03/08 14:59:04;;;;;;;6.22;3.10;;;1.80;99.90;;;;;;12342972;28;20054;-79
2023/03/08 15:05:12;;;;;;;5.43;3.10;;;1.70;99.90;;;;;;12358576;28;20038;-79
2023/03/08 15:11:20;;;;;;;6.35;3.30;;;1.70;99.90;;;;;;12382975;28;20078;-79
2023/03/08 15:17:22;;;;;;;5.43;3.47;;;1.70;99.90;;;;;;12344974;28;20085;-80
2023/03/08 15:23:31;;;;;;;4.72;2.75;;;1.70;99.90;;;;;;12371541;28;20054;-80
2023/03/08 15:29:35;;;;;;;5.47;2.22;;;1.70;99.90;;;;;;12373802;28;20484;-80
2023/03/08 15:35:38;;;;;;;3.60;2.00;;;1.60;99.90;;;;;;12363070;28;20443;-79
2023/03/08 15:41:40;;;;;;;3.78;2.05;;;1.50;99.90;;;;;;12357420;28;20058;-80
2023/03/08 15:47:42;;;;;;;4.57;2.17;;;1.40;99.90;;;;;;12370220;28;20097;-80
2023/03/08 15:53:45;;;;;;;5.10;2.47;;;1.40;99.90;;;;;;12381014;28;20189;-80
2023/03/08 15:59:48;;;;;;;5.32;2.50;;;1.50;99.90;;;;;;12361163;28;20517;-80
2023/03/08 16:05:50;;;;;;;4.72;2.67;;;1.30;99.90;;;;;;12368375;28;20065;-80
2023/03/08 16:11:52;;;;;;;4.82;3.10;;;1.40;99.90;;;;;;12349972;28;20046;-79
2023/03/08 16:17:54;;;;;;;5.03;3.15;;;1.40;99.90;;;;;;12370704;28;20089;-80
2023/03/08 16:23:58;;;;;;;5.85;3.30;;;1.30;99.90;;;;;;12349945;28;20050;-79
2023/03/08 16:30:01;;;;;;;5.40;3.23;;;1.10;99.90;;;;;;12349938;28;20141;-78
2023/03/08 16:36:03;;;;;;;6.57;2.90;;;1.00;99.90;;;;;;12376814;28;20050;-78
2023/03/08 16:42:08;;;;;;;7.53;3.60;;;0.90;99.90;;;;;;12367216;28;20503;-79
2023/03/08 16:48:11;;;;;;;7.20;3.90;;;0.80;99.90;;;;;;12372154;28;20131;-79
2023/03/08 16:54:13;;;;;;;8.05;4.22;;;0.80;99.90;;;;;;12340119;28;20090;-80
2023/03/08 17:00:15;;;;;;;8.32;4.95;;;0.70;99.90;;;;;;12363058;28;20396;-80
2023/03/08 17:06:20;;;;;;;8.90;5.50;;;0.70;99.90;;;;;;12346494;28;20101;-80
2023/03/08 17:12:22;;;;;;;10.48;6.53;;;0.70;99.90;;;;;;12384207;28;20065;-80
2023/03/08 17:18:24;;;;;;;12.18;6.22;;;0.70;99.90;;;;;;12394790;28;20137;-80
2023/03/08 17:24:29;;;;;;;14.02;6.38;;;0.70;99.90;;;;;;12358966;28;20106;-80
2023/03/08 17:30:32;;;;;;;11.73;6.55;;;0.70;99.90;;;;;;12372019;28;20495;-80
2023/03/08 17:36:34;;;;;;;10.82;7.30;;;0.70;99.90;;;;;;12369625;28;23909;-80
2023/03/08 17:42:36;;;;;;;12.27;8.02;;;0.70;99.90;;;;;;12359620;28;20714;-81
2023/03/08 17:48:38;;;;;;;13.15;7.72;;;0.70;99.90;;;;;;12347170;28;20065;-79
2023/03/08 17:54:40;;;;;;;12.70;7.93;;;0.70;99.90;;;;;;12357815;28;20063;-80
2023/03/08 18:00:41;;;;;;;13.73;8.45;;;0.70;99.90;;;;;;12369074;28;20410;-80
2023/03/08 18:06:43;;;;;;;15.88;8.88;;;0.70;99.90;;;;;;12371763;28;20531;-80
2023/03/08 18:12:46;;;;;;;20.98;10.45;;;0.70;99.90;;;;;;12364083;28;20185;-80
2023/03/08 18:18:49;;;;;;;18.27;10.93;;;0.70;99.90;;;;;;12357969;28;20054;-80
2023/03/08 18:24:50;;;;;;;20.33;10.77;;;0.70;99.90;;;;;;12372925;28;20507;-80
2023/03/08 18:30:53;;;;;;;17.38;11.38;;;0.70;99.90;;;;;;12362579;28;20046;-80
2023/03/08 18:36:57;;;;;;;18.95;11.35;;;0.70;99.90;;;;;;12361112;28;20403;-80
2023/03/08 18:42:59;;;;;;;19.08;12.05;;;0.70;99.90;;;;;;12404135;28;20045;-80
2023/03/08 18:49:05;;;;;;;19.83;12.30;;;0.70;99.90;;;;;;12387924;28;20132;-80
2023/03/08 18:55:08;;;;;;;24.33;13.32;;;0.70;99.90;;;;;;12349703;28;20431;-80
2023/03/08 19:01:14;;;;;;;22.38;13.68;;;0.70;99.90;;;;;;12357675;28;20093;-80
2023/03/08 19:07:16;;;;;;;19.60;13.23;;;0.70;99.90;;;;;;12386876;28;20054;-80
2023/03/08 19:13:18;;;;;;;24.13;13.90;;;0.60;99.90;;;;;;12353536;28;20152;-80
2023/03/08 19:19:20;;;;;;;19.15;11.75;;;0.60;99.90;;;;;;12371211;28;20047;-80
2023/03/08 19:25:22;;;;;;;22.27;12.32;;;0.60;99.90;;;;;;12383300;28;20233;-80
2023/03/08 19:31:23;;;;;;;21.15;12.20;;;0.70;99.90;;;;;;12368854;28;20053;-81
2023/03/08 19:37:25;;;;;;;19.70;12.63;;;0.60;99.90;;;;;;12355257;28;20122;-80
2023/03/08 19:43:27;;;;;;;20.00;12.27;;;0.70;99.90;;;;;;12372567;28;20042;-80
2023/03/08 19:49:32;;;;;;;22.55;13.10;;;0.60;99.90;;;;;;12369684;28;20050;-80
2023/03/08 19:55:34;;;;;;;22.70;13.18;;;0.60;99.90;;;;;;12352596;28;20077;-80
2023/03/08 20:01:38;;;;;;;22.42;13.18;;;0.60;99.90;;;;;;12353907;28;20050;-80
2023/03/08 20:07:40;;;;;;;23.90;13.23;;;0.70;99.90;;;;;;12371159;28;20081;-79
2023/03/08 20:13:42;;;;;;;22.73;13.93;;;0.70;99.90;;;;;;12377437;28;20073;-80
2023/03/08 20:19:44;;;;;;;23.35;13.85;;;0.70;99.90;;;;;;12387616;28;20081;-80
2023/03/08 20:25:46;;;;;;;27.83;15.13;;;0.70;99.90;;;;;;12368410;28;20111;-80
2023/03/08 20:31:48;;;;;;;26.92;15.95;;;0.70;99.90;;;;;;12367279;28;20056;-80
2023/03/08 20:37:50;;;;;;;26.75;15.18;;;0.80;99.90;;;;;;12332312;28;20047;-80
2023/03/08 20:43:54;;;;;;;26.17;15.48;;;0.80;99.90;;;;;;12379151;28;20096;-79
2023/03/08 20:49:56;;;;;;;27.67;15.37;;;0.80;99.90;;;;;;12373036;28;20077;-79
2023/03/08 20:55:58;;;;;;;28.45;15.98;;;0.80;99.90;;;;;;12377326;28;20042;-80
2023/03/08 21:02:00;;;;;;;29.63;16.80;;;0.80;99.90;;;;;;12354838;28;20052;-81
2023/03/08 21:08:03;;;;;;;27.92;14.60;;;0.80;99.90;;;;;;12423375;28;20030;-80
2023/03/08 21:14:05;;;;;;;27.45;15.88;;;0.80;99.90;;;;;;12415607;28;20056;-81
2023/03/08 21:20:08;;;;;;;25.90;14.18;;;0.80;99.90;;;;;;12424105;28;20050;-80
2023/03/08 21:26:10;;;;;;;27.05;15.00;;;0.80;99.90;;;;;;12369849;28;20057;-80
2023/03/08 21:32:14;;;;;;;28.70;15.27;;;0.80;99.90;;;;;;12380474;28;20170;-80
2023/03/08 21:38:16;;;;;;;29.85;16.73;;;0.80;99.90;;;;;;12367654;28;20057;-80
2023/03/08 21:44:19;;;;;;;27.88;16.13;;;0.80;99.90;;;;;;12365078;28;20043;-80
2023/03/08 21:50:22;;;;;;;25.10;14.73;;;0.80;99.90;;;;;;12359981;28;20175;-80
2023/03/08 21:56:24;;;;;;;30.83;15.77;;;0.80;99.90;;;;;;12361335;28;20089;-80
2023/03/08 22:02:25;;;;;;;25.92;14.88;;;0.80;99.90;;;;;;12368347;28;20043;-80
2023/03/08 22:08:27;;;;;;;26.92;15.88;;;0.90;99.90;;;;;;12371183;28;20062;-80
2023/03/08 22:14:30;;;;;;;27.17;15.77;;;0.80;99.90;;;;;;12357912;28;20062;-80
2023/03/08 22:20:34;;;;;;;27.83;16.43;;;0.90;99.90;;;;;;12349784;28;20082;-80
2023/03/08 22:26:36;;;;;;;29.08;16.27;;;0.80;99.90;;;;;;12361690;28;20120;-79
2023/03/08 22:32:39;;;;;;;25.75;15.52;;;0.80;99.90;;;;;;12384591;28;20050;-80
2023/03/08 22:38:41;;;;;;;27.23;15.68;;;0.80;99.90;;;;;;12366499;28;20054;-80
2023/03/08 22:44:43;;;;;;;27.30;15.88;;;0.80;99.90;;;;;;12371082;28;20055;-80
2023/03/08 22:50:45;;;;;;;27.02;15.70;;;0.70;99.90;;;;;;12357477;28;20058;-80
2023/03/08 22:56:47;;;;;;;23.75;14.07;;;0.70;99.90;;;;;;12351279;28;20046;-80
2023/03/08 23:02:55;;;;;;;26.17;15.45;;;0.70;99.90;;;;;;12368410;28;20042;-80
2023/03/08 23:09:07;;;;;;;24.67;14.30;;;0.60;99.90;;;;;;12357416;28;20160;-80
2023/03/08 23:15:09;;;;;;;26.88;15.32;;;0.60;99.90;;;;;;12353470;28;20039;-80
2023/03/08 23:21:13;;;;;;;26.60;16.35;;;0.60;99.90;;;;;;12338843;28;20145;-81
2023/03/08 23:27:16;;;;;;;27.17;15.25;;;0.60;99.90;;;;;;12384076;28;20145;-81
2023/03/08 23:33:17;;;;;;;27.10;15.75;;;0.50;99.90;;;;;;12363309;28;20054;-80
2023/03/08 23:39:19;;;;;;;30.65;16.75;;;0.50;99.90;;;;;;12372401;28;20050;-81
2023/03/08 23:45:21;;;;;;;27.48;15.77;;;0.50;99.90;;;;;;12362794;28;20882;-80
2023/03/08 23:51:25;;;;;;;27.17;16.02;;;0.50;99.90;;;;;;12357282;28;20089;-81
2023/03/08 23:57:27;;;;;;;28.23;15.70;;;0.60;99.90;;;;;;12335784;28;20047;-80
